Downstream station:
SHEF ID: CHTM7 Spring River at Carthage, MO
STATION TYPE:
PRECIP STAGE RIV-FLOW
in ft cfs
Ccp-Rev Ccp-Rev Ccp-Rev
(US/Central)
03/28 00:00 0.00 4.15 619
03/28 01:00 0.00 4.16 625
03/28 02:00 0.00 4.14 613
03/28 03:00 0.00 4.14 613
03/28 04:00 0.00 4.13 606
03/28 05:00 0.00 4.13 606
03/28 06:00 0.00 4.13 606
03/28 07:00 0.00 4.12 600
03/28 08:00 0.00 4.11 593
03/28 09:00 0.00 4.12 600
03/28 10:00 0.00 4.11 593
03/28 11:00 0.00 4.12 600
03/28 12:00 0.00 4.11 593
03/28 13:00 0.00 4.10 587
03/28 14:00 0.00 4.10 587
03/28 15:00 0.00 4.11 593
03/28 16:00 0.00 4.09 581
03/28 17:00 0.00 4.11 593
03/28 18:00 0.00 4.10 587
03/28 19:00 0.00 4.09 581
03/28 20:00 0.00 4.09 581
03/28 21:00 0.00 4.09 581
03/28 22:00 0.00 4.08 574
03/28 23:00 ---- ---- ----